createdAt,value
2022-09-28T00:01:12.392Z,2.30
2022-09-28T00:03:59.328Z,2.60
2022-09-28T00:06:45.110Z,2.10
2022-09-28T00:09:30.763Z,1.93
2022-09-28T00:12:16.253Z,2.07
2022-09-28T00:15:03.491Z,2.10
2022-09-28T00:17:49.003Z,1.87
2022-09-28T00:20:34.492Z,2.10
2022-09-28T00:23:20.092Z,1.77
2022-09-28T00:26:06.065Z,2.00
2022-09-28T00:28:53.219Z,1.67
2022-09-28T00:31:38.834Z,1.70
2022-09-28T00:34:24.293Z,1.77
2022-09-28T00:37:10.571Z,1.40
2022-09-28T00:39:56.380Z,1.50
2022-09-28T00:42:42.924Z,1.50
2022-09-28T00:45:28.829Z,1.23
2022-09-28T00:48:14.986Z,1.10
2022-09-28T00:51:04.604Z,1.17
2022-09-28T00:53:51.637Z,1.13
2022-09-28T00:56:40.646Z,1.40
2022-09-28T00:59:26.764Z,1.00
2022-09-28T01:02:12.584Z,1.30
2022-09-28T01:05:00.547Z,1.37
2022-09-28T01:07:47.420Z,1.00
2022-09-28T01:10:33.507Z,1.07
2022-09-28T01:13:21.548Z,1.00
2022-09-28T01:16:41.115Z,1.03
2022-09-28T01:20:16.029Z,1.20
2022-09-28T01:23:13.899Z,1.13
2022-09-28T01:26:25.280Z,1.17
2022-09-28T01:29:22.100Z,1.07
2022-09-28T01:32:14.113Z,0.97
2022-09-28T01:35:09.975Z,1.03
2022-09-28T01:38:10.502Z,1.20
2022-09-28T01:40:58.137Z,1.57
2022-09-28T01:43:50.503Z,1.70
2022-09-28T01:46:46.644Z,1.30
2022-09-28T01:49:40.158Z,1.60
2022-09-28T01:52:31.192Z,1.23
2022-09-28T01:55:35.047Z,1.07
2022-09-28T01:58:33.808Z,1.20
2022-09-28T02:01:29.354Z,1.40
2022-09-28T02:04:40.170Z,1.40
2022-09-28T02:07:45.263Z,1.43
2022-09-28T02:10:38.018Z,1.20
2022-09-28T02:13:40.840Z,1.67
2022-09-28T02:16:49.472Z,1.70
2022-09-28T02:19:36.216Z,1.30
2022-09-28T02:22:57.798Z,1.50
2022-09-28T02:25:50.368Z,1.60
2022-09-28T02:28:38.244Z,1.40
2022-09-28T02:31:24.289Z,1.53
2022-09-28T02:34:09.833Z,1.60
2022-09-28T02:36:55.721Z,1.50
2022-09-28T02:39:41.108Z,1.50
2022-09-28T02:42:38.788Z,1.53
2022-09-28T02:45:39.642Z,1.70
2022-09-28T02:48:55.799Z,1.50
2022-09-28T02:52:10.969Z,1.90
2022-09-28T02:55:26.318Z,2.00
2022-09-28T02:58:12.056Z,1.37
2022-09-28T03:01:06.689Z,1.70
2022-09-28T03:04:07.614Z,1.43
2022-09-28T03:07:06.535Z,1.30
2022-09-28T03:10:18.047Z,1.20
2022-09-28T03:13:04.887Z,1.10
2022-09-28T03:15:51.976Z,1.10
2022-09-28T03:18:37.493Z,1.33
2022-09-28T03:21:23.746Z,1.40
2022-09-28T03:24:11.106Z,1.00
2022-09-28T03:26:56.656Z,1.10
2022-09-28T03:29:42.328Z,1.20
2022-09-28T03:32:28.416Z,1.10
2022-09-28T03:35:13.969Z,1.60
2022-09-28T03:37:59.401Z,2.33
2022-09-28T03:40:56.388Z,2.40
2022-09-28T03:43:42.024Z,2.37
2022-09-28T03:46:27.995Z,3.90
2022-09-28T03:49:17.747Z,2.87
2022-09-28T03:52:04.068Z,3.13
2022-09-28T03:54:49.575Z,3.47
2022-09-28T03:57:34.991Z,3.47
2022-09-28T04:00:20.372Z,3.50
2022-09-28T04:03:05.924Z,4.90
2022-09-28T04:05:52.785Z,4.27
2022-09-28T04:08:39.037Z,4.77
2022-09-28T04:11:24.961Z,5.40
2022-09-28T04:14:10.433Z,5.17
2022-09-28T04:16:55.927Z,5.00
2022-09-28T04:19:43.987Z,4.43
2022-09-28T04:22:55.488Z,5.30
2022-09-28T04:25:41.094Z,4.47
2022-09-28T04:28:45.092Z,6.13
2022-09-28T04:31:36.905Z,5.83
2022-09-28T04:34:23.789Z,5.50
2022-09-28T04:37:09.340Z,5.30
2022-09-28T04:39:57.548Z,4.23
2022-09-28T04:42:43.282Z,4.53
2022-09-28T04:45:28.951Z,6.30
2022-09-28T04:48:21.431Z,6.93
2022-09-28T04:51:19.124Z,6.93
2022-09-28T04:54:04.752Z,6.97
2022-09-28T04:56:52.572Z,7.60
2022-09-28T04:59:38.705Z,6.77
2022-09-28T05:02:27.489Z,6.47
2022-09-28T05:05:49.332Z,6.80
2022-09-28T05:08:53.961Z,7.00
2022-09-28T05:11:39.882Z,6.80
2022-09-28T05:14:30.595Z,7.07
2022-09-28T05:17:16.823Z,6.63
2022-09-28T05:20:09.173Z,6.80
2022-09-28T05:22:55.137Z,6.50
2022-09-28T05:25:41.189Z,6.40
2022-09-28T05:28:35.151Z,7.37
2022-09-28T05:31:56.440Z,8.77
2022-09-28T05:35:06.313Z,7.60
2022-09-28T05:38:04.586Z,7.60
2022-09-28T05:40:50.520Z,8.37
2022-09-28T05:43:36.926Z,7.37
2022-09-28T05:46:24.201Z,9.40
2022-09-28T05:49:10.735Z,7.83
2022-09-28T05:51:56.216Z,7.90
2022-09-28T05:54:41.964Z,7.30
2022-09-28T05:57:27.428Z,8.73
2022-09-28T06:00:13.104Z,6.87
2022-09-28T06:03:03.414Z,7.43
2022-09-28T06:05:52.630Z,6.20
2022-09-28T06:08:38.325Z,6.80
2022-09-28T06:11:40.253Z,5.93
2022-09-28T06:14:40.842Z,6.37
2022-09-28T06:17:26.410Z,5.33
2022-09-28T06:20:35.848Z,5.70
2022-09-28T06:23:33.071Z,6.17
2022-09-28T06:26:19.402Z,5.50
2022-09-28T06:29:05.209Z,5.80
2022-09-28T06:31:51.480Z,5.97
2022-09-28T06:34:37.383Z,5.23
2022-09-28T06:37:23.344Z,6.30
2022-09-28T06:40:09.780Z,5.93
2022-09-28T06:42:58.204Z,6.27
2022-09-28T06:46:10.720Z,6.17
2022-09-28T06:48:56.587Z,5.57
2022-09-28T06:52:02.245Z,6.13
2022-09-28T06:55:07.719Z,6.50
2022-09-28T06:58:06.540Z,5.20
2022-09-28T07:00:52.498Z,5.40
2022-09-28T07:03:38.066Z,5.57
2022-09-28T07:06:50.592Z,5.10
2022-09-28T07:09:55.531Z,5.83
2022-09-28T07:13:04.782Z,5.27
2022-09-28T07:16:00.617Z,6.00
2022-09-28T07:18:46.509Z,5.63
2022-09-28T07:21:32.460Z,5.00
2022-09-28T07:24:20.705Z,5.43
2022-09-28T07:27:15.632Z,4.80
2022-09-28T07:30:20.216Z,4.40
2022-09-28T07:33:29.945Z,3.97
2022-09-28T07:36:27.466Z,3.75
2022-09-28T07:39:13.290Z,3.30
2022-09-28T07:42:02.542Z,2.67
2022-09-28T07:44:49.743Z,3.03
2022-09-28T07:47:35.671Z,2.40
2022-09-28T07:50:52.266Z,2.45
2022-09-28T07:54:06.537Z,2.90
2022-09-28T07:56:53.920Z,2.08
2022-09-28T08:00:09.526Z,2.30
2022-09-28T08:03:03.318Z,2.20
2022-09-28T08:05:51.349Z,2.58
2022-09-28T08:08:38.234Z,2.08
2022-09-28T08:11:25.074Z,2.20
2022-09-28T08:14:34.590Z,2.58
2022-09-28T08:17:33.802Z,2.88
2022-09-28T08:20:42.181Z,2.78
2022-09-28T08:23:27.852Z,1.88
2022-09-28T08:26:15.663Z,2.00
2022-09-28T08:29:03.681Z,2.15
2022-09-28T08:32:22.149Z,2.42
2022-09-28T08:35:26.597Z,1.88
2022-09-28T08:38:34.258Z,2.20
2022-09-28T08:41:51.800Z,2.13
2022-09-28T08:45:11.508Z,1.70
2022-09-28T08:48:22.225Z,2.53
2022-09-28T08:51:37.513Z,2.35
2022-09-28T08:54:54.945Z,1.67
2022-09-28T08:58:14.286Z,2.47
2022-09-28T09:01:06.685Z,1.92
2022-09-28T09:03:53.665Z,2.20
2022-09-28T09:07:25.548Z,2.00
2022-09-28T09:10:53.941Z,2.05
2022-09-28T09:14:04.623Z,1.67
2022-09-28T09:17:20.246Z,2.20
2022-09-28T09:20:24.781Z,2.30
2022-09-28T09:23:39.323Z,1.88
2022-09-28T09:26:40.756Z,1.83
2022-09-28T09:30:01.362Z,2.67
2022-09-28T09:32:56.097Z,2.33
2022-09-28T09:35:58.463Z,2.15
2022-09-28T09:39:34.448Z,3.15
2022-09-28T09:42:57.747Z,2.53
2022-09-28T09:46:19.657Z,1.90
2022-09-28T09:49:41.628Z,1.58
2022-09-28T09:55:32.958Z,2.78
2022-09-28T09:58:50.812Z,2.25
2022-09-28T10:01:44.849Z,1.73
2022-09-28T10:04:46.759Z,2.25
2022-09-28T10:07:47.061Z,1.90
2022-09-28T10:11:09.739Z,1.38
2022-09-28T10:13:59.371Z,1.95
2022-09-28T10:16:58.617Z,2.28
2022-09-28T10:20:23.357Z,2.08
2022-09-28T10:23:34.057Z,2.28
2022-09-28T10:26:25.424Z,1.95
2022-09-28T10:29:16.485Z,2.10
2022-09-28T10:32:03.292Z,2.88
2022-09-28T10:34:55.248Z,2.13
2022-09-28T10:38:14.221Z,1.55
2022-09-28T10:41:13.525Z,1.88
2022-09-28T10:44:27.253Z,2.40
2022-09-28T10:47:24.432Z,1.73
2022-09-28T10:50:28.532Z,3.10
2022-09-28T10:53:29.994Z,2.08
2022-09-28T10:56:23.401Z,2.33
2022-09-28T10:59:29.999Z,1.83
2022-09-28T11:02:37.580Z,2.58
2022-09-28T11:05:37.060Z,1.40
2022-09-28T11:08:30.590Z,2.08
2022-09-28T11:11:22.320Z,1.92
2022-09-28T11:14:43.712Z,2.42
2022-09-28T11:17:41.679Z,1.95
2022-09-28T11:20:33.439Z,2.00
2022-09-28T11:23:31.098Z,1.83
2022-09-28T11:26:25.583Z,1.77
2022-09-28T11:29:41.737Z,2.08
2022-09-28T11:32:43.832Z,1.88
2022-09-28T11:36:01.435Z,2.13
2022-09-28T11:38:47.532Z,1.70
2022-09-28T11:41:57.871Z,1.75
2022-09-28T11:44:46.943Z,1.70
2022-09-28T11:47:42.957Z,2.00
2022-09-28T11:50:51.643Z,1.55
2022-09-28T11:53:42.957Z,1.83
2022-09-28T11:56:42.100Z,2.08
2022-09-28T11:59:36.816Z,1.75
2022-09-28T12:02:29.126Z,3.03
2022-09-28T12:05:30.678Z,2.20
2022-09-28T12:08:20.511Z,2.85
2022-09-28T12:11:32.201Z,1.70
2022-09-28T12:14:40.432Z,2.30
2022-09-28T12:17:37.035Z,1.73
2022-09-28T12:20:41.914Z,2.10
2022-09-28T12:23:35.799Z,1.92
2022-09-28T12:26:35.828Z,1.75
2022-09-28T12:29:29.801Z,2.03
2022-09-28T12:32:49.301Z,1.58
2022-09-28T12:35:41.275Z,1.70
2022-09-28T12:38:36.154Z,1.55
2022-09-28T12:41:50.051Z,1.58
2022-09-28T12:44:41.929Z,1.60
2022-09-28T12:47:48.980Z,1.90
2022-09-28T12:51:08.607Z,1.77
2022-09-28T12:54:06.113Z,1.58
2022-09-28T12:57:13.934Z,1.65
2022-09-28T13:00:12.155Z,1.48
2022-09-28T13:03:08.283Z,1.80
2022-09-28T13:06:23.105Z,1.65
2022-09-28T13:09:30.067Z,1.20
2022-09-28T13:12:27.352Z,1.75
2022-09-28T13:15:18.560Z,2.03
2022-09-28T13:18:36.432Z,2.90
2022-09-28T13:21:38.561Z,2.25
2022-09-28T13:24:33.617Z,3.17
2022-09-28T13:27:36.402Z,2.13
2022-09-28T13:30:24.486Z,1.80
2022-09-28T13:33:21.531Z,2.28
2022-09-28T13:36:33.563Z,2.25
2022-09-28T13:39:48.818Z,3.03
2022-09-28T13:42:52.782Z,2.72
2022-09-28T13:46:15.350Z,1.80
2022-09-28T13:49:21.541Z,2.40
2022-09-28T13:52:42.697Z,2.10
2022-09-28T13:55:50.954Z,1.85
2022-09-28T13:59:00.209Z,2.42
2022-09-28T14:02:23.807Z,2.53
2022-09-28T14:05:47.952Z,3.38
2022-09-28T14:08:45.651Z,2.10
2022-09-28T14:11:38.887Z,2.00
2022-09-28T14:14:32.912Z,1.80
2022-09-28T14:17:25.607Z,2.70
2022-09-28T14:20:19.829Z,1.95
2022-09-28T14:23:34.831Z,1.80
2022-09-28T14:27:08.238Z,1.85
2022-09-28T14:30:27.917Z,1.85
2022-09-28T14:33:22.645Z,2.05
2022-09-28T14:36:57.297Z,3.72
2022-09-28T14:40:06.225Z,2.55
2022-09-28T14:43:28.422Z,2.05
2022-09-28T14:46:21.862Z,3.05
2022-09-28T14:49:26.548Z,2.50
2022-09-28T14:52:21.176Z,3.33
2022-09-28T14:55:19.150Z,2.90
2022-09-28T14:58:17.390Z,2.72
2022-09-28T15:01:13.493Z,2.65
2022-09-28T15:04:05.658Z,2.67
2022-09-28T15:06:56.737Z,2.00
2022-09-28T15:09:45.053Z,3.00
2022-09-28T15:12:34.316Z,3.45
2022-09-28T15:15:47.379Z,2.03
2022-09-28T15:19:13.874Z,2.28
2022-09-28T15:22:01.812Z,2.92
2022-09-28T15:25:03.142Z,2.22
2022-09-28T15:27:56.924Z,1.98
2022-09-28T15:30:43.884Z,1.40
2022-09-28T15:33:50.089Z,2.10
2022-09-28T15:36:39.615Z,1.48
2022-09-28T15:39:32.299Z,3.55
2022-09-28T15:42:18.978Z,2.22
2022-09-28T15:45:07.816Z,2.85
2022-09-28T15:48:39.301Z,2.40
2022-09-28T15:51:25.656Z,2.33
2022-09-28T15:54:19.533Z,2.30
2022-09-28T15:57:05.072Z,2.78
2022-09-28T15:59:57.013Z,2.15
2022-09-28T16:03:17.838Z,1.50
2022-09-28T16:06:11.156Z,2.33
2022-09-28T16:08:56.632Z,1.90
2022-09-28T16:11:42.270Z,2.33
2022-09-28T16:14:27.787Z,1.63
2022-09-28T16:17:38.793Z,1.88
2022-09-28T16:20:32.351Z,1.65
2022-09-28T16:23:34.038Z,1.75
2022-09-28T16:26:37.387Z,1.58
2022-09-28T16:29:40.828Z,2.28
2022-09-28T16:32:26.268Z,2.25
2022-09-28T16:35:11.654Z,2.00
2022-09-28T16:38:02.667Z,1.58
2022-09-28T16:40:50.666Z,1.67
2022-09-28T16:43:36.591Z,1.73
2022-09-28T16:46:29.357Z,2.20
2022-09-28T16:49:20.090Z,1.58
2022-09-28T16:52:12.369Z,1.42
2022-09-28T16:55:38.774Z,2.35
2022-09-28T16:58:22.328Z,2.30
2022-09-28T17:01:11.586Z,3.25
2022-09-28T17:03:57.277Z,3.13
2022-09-28T17:06:43.555Z,3.95
2022-09-28T17:09:29.416Z,4.07
2022-09-28T17:12:22.532Z,3.92
2022-09-28T17:15:08.496Z,3.70
2022-09-28T17:17:55.841Z,3.17
2022-09-28T17:20:44.709Z,3.80
2022-09-28T17:23:30.919Z,3.05
2022-09-28T17:26:19.242Z,3.47
2022-09-28T17:29:08.785Z,3.80
2022-09-28T17:31:55.096Z,4.25
2022-09-28T17:34:40.914Z,3.40
2022-09-28T17:37:26.429Z,3.72
2022-09-28T17:40:25.793Z,4.10
2022-09-28T17:43:11.541Z,4.15
2022-09-28T17:45:57.285Z,3.72
2022-09-28T17:48:46.064Z,4.28
2022-09-28T17:51:34.964Z,4.05
2022-09-28T17:54:22.536Z,3.83
2022-09-28T17:57:09.872Z,3.90
2022-09-28T17:59:55.322Z,3.65
2022-09-28T18:02:41.445Z,5.03
2022-09-28T18:05:29.393Z,6.30
2022-09-28T18:08:18.718Z,5.53
2022-09-28T18:11:04.728Z,5.93
2022-09-28T18:13:50.539Z,5.20
2022-09-28T18:16:36.636Z,5.22
2022-09-28T18:19:22.089Z,6.25
2022-09-28T18:22:07.806Z,5.95
2022-09-28T18:24:53.476Z,4.82
2022-09-28T18:27:39.108Z,5.32
2022-09-28T18:30:25.175Z,5.03
2022-09-28T18:33:13.155Z,4.78
2022-09-28T18:35:59.091Z,4.80
2022-09-28T18:38:44.887Z,5.40
2022-09-28T18:41:30.477Z,4.88
2022-09-28T18:44:16.332Z,4.78
2022-09-28T18:47:02.399Z,4.70
2022-09-28T18:49:47.934Z,4.57
2022-09-28T18:52:36.619Z,4.40
2022-09-28T18:55:22.328Z,4.32
2022-09-28T18:58:10.393Z,4.13
2022-09-28T19:01:13.554Z,4.13
2022-09-28T19:04:03.347Z,4.45
2022-09-28T19:06:52.392Z,3.50
2022-09-28T19:09:40.551Z,3.50
2022-09-28T19:12:26.498Z,3.90
2022-09-28T19:15:12.859Z,4.32
2022-09-28T19:17:58.558Z,3.50
2022-09-28T19:20:44.613Z,3.83
2022-09-28T19:23:30.153Z,3.90
2022-09-28T19:26:21.982Z,3.70
2022-09-28T19:29:07.881Z,3.08
2022-09-28T19:31:53.393Z,3.53
2022-09-28T19:34:39.052Z,3.47
2022-09-28T19:37:24.763Z,3.67
2022-09-28T19:40:10.458Z,3.33
2022-09-28T19:42:55.989Z,3.35
2022-09-28T19:45:42.746Z,3.42
2022-09-28T19:48:29.192Z,3.63
2022-09-28T19:51:15.515Z,3.00
2022-09-28T19:54:05.989Z,3.15
2022-09-28T19:56:52.721Z,3.22
2022-09-28T19:59:38.954Z,2.50
2022-09-28T20:02:24.502Z,3.25
2022-09-28T20:05:09.857Z,2.80
2022-09-28T20:07:55.463Z,2.60
2022-09-28T20:10:49.360Z,2.47
2022-09-28T20:13:37.768Z,3.33
2022-09-28T20:16:24.596Z,3.05
2022-09-28T20:19:10.153Z,3.72
2022-09-28T20:21:59.471Z,5.72
2022-09-28T20:24:44.885Z,5.35
2022-09-28T20:27:30.437Z,5.68
2022-09-28T20:30:16.149Z,5.28
2022-09-28T20:33:01.828Z,5.00
2022-09-28T20:35:47.644Z,6.38
2022-09-28T20:38:33.560Z,6.20
2022-09-28T20:41:22.036Z,5.75
2022-09-28T20:44:08.114Z,6.22
2022-09-28T20:46:53.955Z,5.78
2022-09-28T20:49:39.312Z,5.97
2022-09-28T20:52:25.060Z,5.28
2022-09-28T20:55:10.682Z,6.07
2022-09-28T20:57:56.178Z,6.50
2022-09-28T21:00:41.630Z,6.43
2022-09-28T21:03:27.101Z,5.72
2022-09-28T21:06:14.199Z,6.67
2022-09-28T21:09:00.100Z,6.57
2022-09-28T21:11:46.384Z,6.40
2022-09-28T21:14:32.233Z,5.37
2022-09-28T21:17:17.592Z,6.93
2022-09-28T21:20:03.812Z,6.30
2022-09-28T21:22:49.561Z,6.93
2022-09-28T21:25:34.974Z,6.80
2022-09-28T21:28:20.497Z,7.60
2022-09-28T21:31:10.261Z,6.30
2022-09-28T21:33:56.065Z,6.30
2022-09-28T21:36:43.476Z,7.33
2022-09-28T21:39:29.094Z,6.90
2022-09-28T21:42:14.506Z,6.77
2022-09-28T21:44:59.911Z,6.57
2022-09-28T21:47:52.742Z,7.37
2022-09-28T21:50:38.113Z,6.43
2022-09-28T21:53:29.054Z,7.33
2022-09-28T21:56:14.490Z,6.47
2022-09-28T21:59:01.250Z,6.67
2022-09-28T22:01:48.169Z,6.53
2022-09-28T22:04:33.592Z,6.60
2022-09-28T22:07:19.083Z,5.97
2022-09-28T22:10:08.825Z,6.40
2022-09-28T22:12:54.610Z,5.40
2022-09-28T22:15:40.290Z,7.13
2022-09-28T22:18:27.295Z,6.20
2022-09-28T22:21:16.651Z,6.73
2022-09-28T22:24:05.468Z,5.70
2022-09-28T22:26:51.269Z,6.70
2022-09-28T22:29:36.740Z,5.50
2022-09-28T22:32:23.812Z,5.13
2022-09-28T22:35:09.756Z,5.20
2022-09-28T22:37:55.260Z,6.50
2022-09-28T22:40:55.486Z,5.50
2022-09-28T22:43:40.889Z,6.57
2022-09-28T22:46:28.712Z,5.77
2022-09-28T22:49:14.361Z,5.90
2022-09-28T22:51:59.872Z,6.87
2022-09-28T22:54:46.310Z,7.00
2022-09-28T22:57:32.173Z,8.00
2022-09-28T23:00:17.841Z,6.63
2022-09-28T23:03:03.813Z,5.90
2022-09-28T23:05:54.101Z,5.60
2022-09-28T23:08:39.826Z,5.80
2022-09-28T23:11:25.358Z,5.87
2022-09-28T23:14:12.528Z,6.13
2022-09-28T23:16:58.309Z,6.87
2022-09-28T23:19:43.920Z,6.43
2022-09-28T23:22:29.439Z,6.33
2022-09-28T23:25:16.769Z,7.27
2022-09-28T23:28:02.642Z,6.53
2022-09-28T23:30:48.898Z,7.60
2022-09-28T23:33:34.555Z,6.50
2022-09-28T23:36:20.226Z,6.43
2022-09-28T23:39:05.827Z,7.33
2022-09-28T23:41:51.209Z,6.17
2022-09-28T23:44:36.875Z,5.87
2022-09-28T23:47:22.563Z,7.30
2022-09-28T23:50:08.471Z,7.30
2022-09-28T23:52:54.127Z,6.40
2022-09-28T23:55:39.644Z,7.57
2022-09-28T23:58:25.825Z,6.77
